sensor_id;sensor_type;location;lat;lon;timestamp;P1;durP1;ratioP1;P2;durP2;ratioP2
57337;SDS011;43173;50.980;18.204;2023-01-15T00:01:22;4.10;;;2.20;;
57337;SDS011;43173;50.980;18.204;2023-01-15T00:03:48;5.50;;;2.00;;
57337;SDS011;43173;50.980;18.204;2023-01-15T00:06:15;6.90;;;2.60;;
57337;SDS011;43173;50.980;18.204;2023-01-15T00:08:41;4.40;;;1.90;;
57337;SDS011;43173;50.980;18.204;2023-01-15T00:11:07;3.80;;;2.10;;
57337;SDS011;43173;50.980;18.204;2023-01-15T00:13:33;5.40;;;1.90;;
57337;SDS011;43173;50.980;18.204;2023-01-15T00:18:54;3.50;;;1.90;;
57337;SDS011;43173;50.980;18.204;2023-01-15T00:21:22;4.20;;;2.20;;
57337;SDS011;43173;50.980;18.204;2023-01-15T00:23:49;4.90;;;2.20;;
57337;SDS011;43173;50.980;18.204;2023-01-15T00:26:34;3.70;;;2.10;;
57337;SDS011;43173;50.980;18.204;2023-01-15T00:29:19;4.30;;;2.80;;
57337;SDS011;43173;50.980;18.204;2023-01-15T00:31:50;6.10;;;2.20;;
57337;SDS011;43173;50.980;18.204;2023-01-15T00:34:36;5.70;;;2.90;;
57337;SDS011;43173;50.980;18.204;2023-01-15T00:37:02;5.00;;;2.40;;
57337;SDS011;43173;50.980;18.204;2023-01-15T00:39:28;5.70;;;3.10;;
57337;SDS011;43173;50.980;18.204;2023-01-15T00:41:54;4.10;;;1.80;;
57337;SDS011;43173;50.980;18.204;2023-01-15T00:44:20;6.50;;;2.70;;
57337;SDS011;43173;50.980;18.204;2023-01-15T00:46:46;4.70;;;2.60;;
57337;SDS011;43173;50.980;18.204;2023-01-15T00:49:12;5.00;;;2.50;;
57337;SDS011;43173;50.980;18.204;2023-01-15T00:51:39;8.00;;;2.60;;
57337;SDS011;43173;50.980;18.204;2023-01-15T00:54:04;3.50;;;2.30;;
57337;SDS011;43173;50.980;18.204;2023-01-15T00:56:30;6.30;;;2.70;;
57337;SDS011;43173;50.980;18.204;2023-01-15T00:58:55;6.20;;;3.10;;
57337;SDS011;43173;50.980;18.204;2023-01-15T01:01:21;4.80;;;2.70;;
57337;SDS011;43173;50.980;18.204;2023-01-15T01:03:47;6.40;;;2.90;;
57337;SDS011;43173;50.980;18.204;2023-01-15T01:06:18;5.50;;;2.70;;
57337;SDS011;43173;50.980;18.204;2023-01-15T01:08:45;3.70;;;2.40;;
57337;SDS011;43173;50.980;18.204;2023-01-15T01:11:12;5.10;;;2.30;;
57337;SDS011;43173;50.980;18.204;2023-01-15T01:13:40;6.10;;;2.50;;
57337;SDS011;43173;50.980;18.204;2023-01-15T01:18:55;4.40;;;2.70;;
57337;SDS011;43173;50.980;18.204;2023-01-15T01:21:22;4.50;;;2.40;;
57337;SDS011;43173;50.980;18.204;2023-01-15T01:23:48;5.20;;;2.60;;
57337;SDS011;43173;50.980;18.204;2023-01-15T01:26:14;4.80;;;2.50;;
57337;SDS011;43173;50.980;18.204;2023-01-15T01:28:40;5.00;;;2.60;;
57337;SDS011;43173;50.980;18.204;2023-01-15T01:31:07;4.40;;;2.30;;
57337;SDS011;43173;50.980;18.204;2023-01-15T01:33:33;5.10;;;3.10;;
57337;SDS011;43173;50.980;18.204;2023-01-15T01:35:59;6.40;;;3.00;;
57337;SDS011;43173;50.980;18.204;2023-01-15T01:38:24;9.70;;;2.90;;
57337;SDS011;43173;50.980;18.204;2023-01-15T01:40:50;3.90;;;2.40;;
57337;SDS011;43173;50.980;18.204;2023-01-15T01:43:18;6.10;;;2.80;;
57337;SDS011;43173;50.980;18.204;2023-01-15T01:45:48;3.70;;;2.20;;
57337;SDS011;43173;50.980;18.204;2023-01-15T01:48:14;4.50;;;2.80;;
57337;SDS011;43173;50.980;18.204;2023-01-15T01:50:42;4.90;;;2.70;;
57337;SDS011;43173;50.980;18.204;2023-01-15T01:53:27;4.40;;;2.80;;
57337;SDS011;43173;50.980;18.204;2023-01-15T01:55:54;5.70;;;2.90;;
57337;SDS011;43173;50.980;18.204;2023-01-15T01:58:20;7.30;;;3.80;;
57337;SDS011;43173;50.980;18.204;2023-01-15T02:00:48;5.10;;;3.50;;
57337;SDS011;43173;50.980;18.204;2023-01-15T02:03:15;5.40;;;3.40;;
57337;SDS011;43173;50.980;18.204;2023-01-15T02:05:46;4.20;;;2.90;;
57337;SDS011;43173;50.980;18.204;2023-01-15T02:08:14;5.70;;;3.30;;
57337;SDS011;43173;50.980;18.204;2023-01-15T02:10:40;8.40;;;2.60;;
57337;SDS011;43173;50.980;18.204;2023-01-15T02:13:30;5.60;;;3.30;;
57337;SDS011;43173;50.980;18.204;2023-01-15T02:15:59;5.90;;;3.70;;
57337;SDS011;43173;50.980;18.204;2023-01-15T02:18:39;5.10;;;3.40;;
57337;SDS011;43173;50.980;18.204;2023-01-15T02:27:15;4.60;;;3.40;;
57337;SDS011;43173;50.980;18.204;2023-01-15T02:32:33;7.70;;;3.90;;
57337;SDS011;43173;50.980;18.204;2023-01-15T02:35:06;6.40;;;3.30;;
57337;SDS011;43173;50.980;18.204;2023-01-15T02:37:41;6.80;;;4.10;;
57337;SDS011;43173;50.980;18.204;2023-01-15T02:40:11;8.10;;;4.00;;
57337;SDS011;43173;50.980;18.204;2023-01-15T02:42:37;4.90;;;3.30;;
57337;SDS011;43173;50.980;18.204;2023-01-15T02:45:12;7.00;;;4.10;;
57337;SDS011;43173;50.980;18.204;2023-01-15T02:47:39;3.80;;;3.00;;
57337;SDS011;43173;50.980;18.204;2023-01-15T02:50:07;7.60;;;4.10;;
57337;SDS011;43173;50.980;18.204;2023-01-15T02:52:36;5.20;;;3.20;;
57337;SDS011;43173;50.980;18.204;2023-01-15T02:55:07;6.20;;;3.40;;
57337;SDS011;43173;50.980;18.204;2023-01-15T02:57:36;4.90;;;3.20;;
57337;SDS011;43173;50.980;18.204;2023-01-15T03:00:04;5.90;;;3.70;;
57337;SDS011;43173;50.980;18.204;2023-01-15T03:02:34;6.50;;;3.30;;
57337;SDS011;43173;50.980;18.204;2023-01-15T03:07:34;7.20;;;3.90;;
57337;SDS011;43173;50.980;18.204;2023-01-15T03:10:02;4.30;;;3.10;;
57337;SDS011;43173;50.980;18.204;2023-01-15T03:12:34;5.50;;;3.50;;
57337;SDS011;43173;50.980;18.204;2023-01-15T03:15:26;5.70;;;3.40;;
57337;SDS011;43173;50.980;18.204;2023-01-15T03:18:21;6.40;;;4.10;;
57337;SDS011;43173;50.980;18.204;2023-01-15T03:20:51;8.30;;;4.10;;
57337;SDS011;43173;50.980;18.204;2023-01-15T03:23:21;9.00;;;4.10;;
57337;SDS011;43173;50.980;18.204;2023-01-15T03:25:49;10.50;;;3.70;;
57337;SDS011;43173;50.980;18.204;2023-01-15T03:28:16;5.60;;;3.20;;
57337;SDS011;43173;50.980;18.204;2023-01-15T03:30:45;8.50;;;4.10;;
57337;SDS011;43173;50.980;18.204;2023-01-15T03:33:11;6.70;;;3.80;;
57337;SDS011;43173;50.980;18.204;2023-01-15T03:38:24;4.70;;;3.10;;
57337;SDS011;43173;50.980;18.204;2023-01-15T04:00:21;4.80;;;2.60;;
57337;SDS011;43173;50.980;18.204;2023-01-15T04:02:51;4.30;;;2.50;;
57337;SDS011;43173;50.980;18.204;2023-01-15T04:05:18;6.20;;;3.20;;
57337;SDS011;43173;50.980;18.204;2023-01-15T04:07:44;7.20;;;2.50;;
57337;SDS011;43173;50.980;18.204;2023-01-15T04:10:11;5.90;;;3.00;;
57337;SDS011;43173;50.980;18.204;2023-01-15T04:12:38;5.20;;;2.70;;
57337;SDS011;43173;50.980;18.204;2023-01-15T04:15:03;5.40;;;3.00;;
57337;SDS011;43173;50.980;18.204;2023-01-15T04:17:30;5.40;;;3.00;;
57337;SDS011;43173;50.980;18.204;2023-01-15T04:19:55;3.40;;;2.00;;
57337;SDS011;43173;50.980;18.204;2023-01-15T04:22:21;4.80;;;2.60;;
57337;SDS011;43173;50.980;18.204;2023-01-15T04:24:47;3.30;;;2.50;;
57337;SDS011;43173;50.980;18.204;2023-01-15T04:27:12;5.30;;;3.00;;
57337;SDS011;43173;50.980;18.204;2023-01-15T04:29:38;3.20;;;2.40;;
57337;SDS011;43173;50.980;18.204;2023-01-15T04:32:04;2.70;;;2.20;;
57337;SDS011;43173;50.980;18.204;2023-01-15T04:34:30;3.20;;;2.40;;
57337;SDS011;43173;50.980;18.204;2023-01-15T04:36:55;9.50;;;3.10;;
57337;SDS011;43173;50.980;18.204;2023-01-15T04:39:21;3.20;;;2.20;;
57337;SDS011;43173;50.980;18.204;2023-01-15T04:41:47;3.20;;;2.30;;
57337;SDS011;43173;50.980;18.204;2023-01-15T04:44:32;5.40;;;2.70;;
57337;SDS011;43173;50.980;18.204;2023-01-15T04:46:59;3.20;;;1.90;;
57337;SDS011;43173;50.980;18.204;2023-01-15T04:49:24;3.90;;;2.20;;
57337;SDS011;43173;50.980;18.204;2023-01-15T04:51:50;3.10;;;2.20;;
57337;SDS011;43173;50.980;18.204;2023-01-15T04:54:16;4.90;;;2.20;;
57337;SDS011;43173;50.980;18.204;2023-01-15T04:56:46;5.30;;;2.60;;
57337;SDS011;43173;50.980;18.204;2023-01-15T04:59:14;4.10;;;2.60;;
57337;SDS011;43173;50.980;18.204;2023-01-15T05:01:41;5.90;;;2.50;;
57337;SDS011;43173;50.980;18.204;2023-01-15T05:04:06;4.00;;;2.10;;
57337;SDS011;43173;50.980;18.204;2023-01-15T05:06:32;4.40;;;2.30;;
57337;SDS011;43173;50.980;18.204;2023-01-15T05:08:59;4.70;;;2.90;;
57337;SDS011;43173;50.980;18.204;2023-01-15T05:11:25;4.40;;;2.40;;
57337;SDS011;43173;50.980;18.204;2023-01-15T05:13:51;4.10;;;3.00;;
57337;SDS011;43173;50.980;18.204;2023-01-15T05:16:19;5.40;;;2.80;;
57337;SDS011;43173;50.980;18.204;2023-01-15T05:18:46;3.90;;;2.30;;
57337;SDS011;43173;50.980;18.204;2023-01-15T05:21:13;2.80;;;2.30;;
57337;SDS011;43173;50.980;18.204;2023-01-15T05:23:41;3.90;;;2.70;;
57337;SDS011;43173;50.980;18.204;2023-01-15T05:26:06;4.30;;;2.40;;
57337;SDS011;43173;50.980;18.204;2023-01-15T05:28:32;4.60;;;2.60;;
57337;SDS011;43173;50.980;18.204;2023-01-15T05:30:57;3.30;;;2.30;;
57337;SDS011;43173;50.980;18.204;2023-01-15T05:33:23;4.50;;;2.80;;
57337;SDS011;43173;50.980;18.204;2023-01-15T05:35:49;4.40;;;2.90;;
57337;SDS011;43173;50.980;18.204;2023-01-15T05:38:15;4.80;;;3.10;;
57337;SDS011;43173;50.980;18.204;2023-01-15T05:40:40;3.20;;;2.10;;
57337;SDS011;43173;50.980;18.204;2023-01-15T05:43:06;3.60;;;2.30;;
57337;SDS011;43173;50.980;18.204;2023-01-15T05:45:33;4.00;;;2.70;;
57337;SDS011;43173;50.980;18.204;2023-01-15T05:48:00;4.40;;;2.70;;
57337;SDS011;43173;50.980;18.204;2023-01-15T05:50:25;4.50;;;2.90;;
57337;SDS011;43173;50.980;18.204;2023-01-15T05:52:51;4.70;;;2.90;;
57337;SDS011;43173;50.980;18.204;2023-01-15T05:55:16;4.20;;;2.90;;
57337;SDS011;43173;50.980;18.204;2023-01-15T05:57:42;4.00;;;2.70;;
57337;SDS011;43173;50.980;18.204;2023-01-15T06:00:08;6.00;;;3.70;;
57337;SDS011;43173;50.980;18.204;2023-01-15T06:02:34;4.10;;;2.50;;
57337;SDS011;43173;50.980;18.204;2023-01-15T06:04:59;4.70;;;3.10;;
57337;SDS011;43173;50.980;18.204;2023-01-15T06:07:25;2.90;;;2.20;;
57337;SDS011;43173;50.980;18.204;2023-01-15T06:09:50;3.60;;;2.60;;
57337;SDS011;43173;50.980;18.204;2023-01-15T06:12:16;5.60;;;2.60;;
57337;SDS011;43173;50.980;18.204;2023-01-15T06:14:42;9.00;;;4.70;;
57337;SDS011;43173;50.980;18.204;2023-01-15T06:17:07;4.00;;;2.50;;
57337;SDS011;43173;50.980;18.204;2023-01-15T06:19:33;3.80;;;2.80;;
57337;SDS011;43173;50.980;18.204;2023-01-15T06:21:58;8.60;;;3.40;;
57337;SDS011;43173;50.980;18.204;2023-01-15T06:24:24;6.10;;;3.00;;
57337;SDS011;43173;50.980;18.204;2023-01-15T06:26:50;5.50;;;2.90;;
57337;SDS011;43173;50.980;18.204;2023-01-15T06:29:15;5.10;;;3.10;;
57337;SDS011;43173;50.980;18.204;2023-01-15T06:31:42;5.60;;;3.60;;
57337;SDS011;43173;50.980;18.204;2023-01-15T06:34:08;6.20;;;3.30;;
57337;SDS011;43173;50.980;18.204;2023-01-15T06:36:34;6.30;;;3.10;;
57337;SDS011;43173;50.980;18.204;2023-01-15T06:38:59;5.20;;;3.40;;
57337;SDS011;43173;50.980;18.204;2023-01-15T06:41:25;5.40;;;3.50;;
57337;SDS011;43173;50.980;18.204;2023-01-15T06:44:11;7.50;;;4.40;;
57337;SDS011;43173;50.980;18.204;2023-01-15T06:46:56;5.60;;;3.30;;
57337;SDS011;43173;50.980;18.204;2023-01-15T06:49:41;9.10;;;3.60;;
57337;SDS011;43173;50.980;18.204;2023-01-15T06:52:07;5.90;;;4.10;;
57337;SDS011;43173;50.980;18.204;2023-01-15T06:54:33;7.00;;;3.30;;
57337;SDS011;43173;50.980;18.204;2023-01-15T06:56:59;7.60;;;4.10;;
57337;SDS011;43173;50.980;18.204;2023-01-15T06:59:24;6.00;;;3.10;;
57337;SDS011;43173;50.980;18.204;2023-01-15T07:01:50;5.90;;;3.60;;
57337;SDS011;43173;50.980;18.204;2023-01-15T07:04:16;7.10;;;3.00;;
57337;SDS011;43173;50.980;18.204;2023-01-15T07:06:41;7.50;;;4.20;;
57337;SDS011;43173;50.980;18.204;2023-01-15T07:09:07;6.70;;;3.40;;
57337;SDS011;43173;50.980;18.204;2023-01-15T07:11:32;6.50;;;3.20;;
57337;SDS011;43173;50.980;18.204;2023-01-15T07:13:58;4.60;;;3.70;;
57337;SDS011;43173;50.980;18.204;2023-01-15T07:16:30;6.50;;;3.80;;
57337;SDS011;43173;50.980;18.204;2023-01-15T07:18:57;6.00;;;3.00;;
57337;SDS011;43173;50.980;18.204;2023-01-15T07:21:22;4.00;;;2.60;;
57337;SDS011;43173;50.980;18.204;2023-01-15T07:23:48;5.30;;;2.60;;
57337;SDS011;43173;50.980;18.204;2023-01-15T07:26:14;8.70;;;3.60;;
57337;SDS011;43173;50.980;18.204;2023-01-15T07:28:40;4.90;;;2.80;;
57337;SDS011;43173;50.980;18.204;2023-01-15T07:31:06;7.60;;;3.40;;
57337;SDS011;43173;50.980;18.204;2023-01-15T07:33:32;4.90;;;3.00;;
57337;SDS011;43173;50.980;18.204;2023-01-15T07:36:01;7.00;;;2.90;;
57337;SDS011;43173;50.980;18.204;2023-01-15T07:38:27;5.80;;;3.10;;
57337;SDS011;43173;50.980;18.204;2023-01-15T07:40:54;4.40;;;3.30;;
57337;SDS011;43173;50.980;18.204;2023-01-15T07:43:39;7.30;;;3.80;;
57337;SDS011;43173;50.980;18.204;2023-01-15T07:46:23;8.00;;;4.00;;
57337;SDS011;43173;50.980;18.204;2023-01-15T07:49:09;8.50;;;4.00;;
57337;SDS011;43173;50.980;18.204;2023-01-15T07:51:54;6.50;;;3.90;;
57337;SDS011;43173;50.980;18.204;2023-01-15T07:54:20;5.10;;;3.00;;
57337;SDS011;43173;50.980;18.204;2023-01-15T07:56:45;6.30;;;4.20;;
57337;SDS011;43173;50.980;18.204;2023-01-15T07:59:11;5.30;;;3.20;;
57337;SDS011;43173;50.980;18.204;2023-01-15T08:01:36;3.80;;;2.60;;
57337;SDS011;43173;50.980;18.204;2023-01-15T08:04:02;5.00;;;3.00;;
57337;SDS011;43173;50.980;18.204;2023-01-15T08:06:27;7.10;;;3.30;;
57337;SDS011;43173;50.980;18.204;2023-01-15T08:08:53;7.00;;;3.60;;
57337;SDS011;43173;50.980;18.204;2023-01-15T08:11:19;4.20;;;3.00;;
57337;SDS011;43173;50.980;18.204;2023-01-15T08:14:03;6.30;;;3.60;;
57337;SDS011;43173;50.980;18.204;2023-01-15T08:16:47;5.60;;;3.10;;
57337;SDS011;43173;50.980;18.204;2023-01-15T08:19:13;6.00;;;3.60;;
57337;SDS011;43173;50.980;18.204;2023-01-15T08:21:39;6.50;;;3.00;;
57337;SDS011;43173;50.980;18.204;2023-01-15T08:24:04;9.00;;;3.30;;
57337;SDS011;43173;50.980;18.204;2023-01-15T08:26:30;7.80;;;4.00;;
57337;SDS011;43173;50.980;18.204;2023-01-15T08:28:56;6.10;;;3.30;;
57337;SDS011;43173;50.980;18.204;2023-01-15T08:31:21;5.50;;;3.20;;
57337;SDS011;43173;50.980;18.204;2023-01-15T08:33:47;7.60;;;3.80;;
57337;SDS011;43173;50.980;18.204;2023-01-15T08:36:12;6.80;;;4.40;;
57337;SDS011;43173;50.980;18.204;2023-01-15T08:38:40;7.10;;;4.30;;
57337;SDS011;43173;50.980;18.204;2023-01-15T08:41:05;3.80;;;2.70;;
57337;SDS011;43173;50.980;18.204;2023-01-15T08:43:31;6.00;;;3.10;;
57337;SDS011;43173;50.980;18.204;2023-01-15T08:45:57;8.00;;;4.80;;
57337;SDS011;43173;50.980;18.204;2023-01-15T08:48:24;7.10;;;3.80;;
57337;SDS011;43173;50.980;18.204;2023-01-15T08:50:51;9.40;;;4.00;;
57337;SDS011;43173;50.980;18.204;2023-01-15T08:53:17;6.30;;;3.30;;
57337;SDS011;43173;50.980;18.204;2023-01-15T08:55:44;7.30;;;3.30;;
57337;SDS011;43173;50.980;18.204;2023-01-15T08:58:10;7.00;;;3.40;;
57337;SDS011;43173;50.980;18.204;2023-01-15T09:00:36;5.60;;;3.80;;
57337;SDS011;43173;50.980;18.204;2023-01-15T09:03:02;6.50;;;3.90;;
57337;SDS011;43173;50.980;18.204;2023-01-15T09:05:28;8.20;;;3.00;;
57337;SDS011;43173;50.980;18.204;2023-01-15T09:07:54;8.70;;;3.60;;
57337;SDS011;43173;50.980;18.204;2023-01-15T09:10:20;4.70;;;2.50;;
57337;SDS011;43173;50.980;18.204;2023-01-15T09:12:46;11.60;;;4.20;;
57337;SDS011;43173;50.980;18.204;2023-01-15T09:15:11;7.10;;;3.50;;
57337;SDS011;43173;50.980;18.204;2023-01-15T09:17:37;7.50;;;3.70;;
57337;SDS011;43173;50.980;18.204;2023-01-15T09:20:07;8.40;;;3.20;;
57337;SDS011;43173;50.980;18.204;2023-01-15T09:22:34;8.20;;;4.30;;
57337;SDS011;43173;50.980;18.204;2023-01-15T09:25:00;4.10;;;2.80;;
57337;SDS011;43173;50.980;18.204;2023-01-15T09:27:26;9.30;;;3.90;;
57337;SDS011;43173;50.980;18.204;2023-01-15T09:29:53;9.00;;;4.50;;
57337;SDS011;43173;50.980;18.204;2023-01-15T09:32:20;5.80;;;2.90;;
57337;SDS011;43173;50.980;18.204;2023-01-15T09:34:46;4.70;;;2.90;;
57337;SDS011;43173;50.980;18.204;2023-01-15T09:37:12;5.30;;;2.90;;
57337;SDS011;43173;50.980;18.204;2023-01-15T09:39:38;8.00;;;3.80;;
57337;SDS011;43173;50.980;18.204;2023-01-15T09:47:37;4.50;;;3.60;;
57337;SDS011;43173;50.980;18.204;2023-01-15T09:52:59;7.30;;;3.60;;
57337;SDS011;43173;50.980;18.204;2023-01-15T09:55:33;8.00;;;3.50;;
57337;SDS011;43173;50.980;18.204;2023-01-15T09:58:03;5.10;;;3.30;;
57337;SDS011;43173;50.980;18.204;2023-01-15T10:00:42;8.10;;;3.40;;
57337;SDS011;43173;50.980;18.204;2023-01-15T10:05:35;4.30;;;2.40;;
57337;SDS011;43173;50.980;18.204;2023-01-15T10:10:54;3.10;;;1.90;;
57337;SDS011;43173;50.980;18.204;2023-01-15T10:16:16;6.90;;;2.80;;
57337;SDS011;43173;50.980;18.204;2023-01-15T10:18:44;3.60;;;2.60;;
57337;SDS011;43173;50.980;18.204;2023-01-15T10:32:28;8.00;;;3.40;;
57337;SDS011;43173;50.980;18.204;2023-01-15T10:37:50;8.00;;;3.10;;
57337;SDS011;43173;50.980;18.204;2023-01-15T10:46:18;7.60;;;3.70;;
57337;SDS011;43173;50.980;18.204;2023-01-15T10:51:46;6.00;;;2.90;;
57337;SDS011;43173;50.980;18.204;2023-01-15T11:00:30;5.20;;;3.20;;
57337;SDS011;43173;50.980;18.204;2023-01-15T11:02:59;5.50;;;2.80;;
57337;SDS011;43173;50.980;18.204;2023-01-15T11:05:33;7.90;;;3.20;;
57337;SDS011;43173;50.980;18.204;2023-01-15T11:08:00;6.90;;;3.30;;
57337;SDS011;43173;50.980;18.204;2023-01-15T11:10:27;4.30;;;2.30;;
57337;SDS011;43173;50.980;18.204;2023-01-15T11:12:54;5.30;;;2.50;;
57337;SDS011;43173;50.980;18.204;2023-01-15T11:15:43;6.10;;;2.50;;
57337;SDS011;43173;50.980;18.204;2023-01-15T11:18:30;3.90;;;2.40;;
57337;SDS011;43173;50.980;18.204;2023-01-15T11:21:19;4.10;;;2.60;;
57337;SDS011;43173;50.980;18.204;2023-01-15T11:23:46;6.30;;;3.10;;
57337;SDS011;43173;50.980;18.204;2023-01-15T11:26:17;4.70;;;2.40;;
57337;SDS011;43173;50.980;18.204;2023-01-15T11:28:45;7.10;;;2.70;;
57337;SDS011;43173;50.980;18.204;2023-01-15T11:31:12;5.40;;;2.10;;
57337;SDS011;43173;50.980;18.204;2023-01-15T11:33:39;6.60;;;2.90;;
57337;SDS011;43173;50.980;18.204;2023-01-15T11:36:06;5.00;;;2.80;;
57337;SDS011;43173;50.980;18.204;2023-01-15T11:38:42;3.70;;;2.40;;
57337;SDS011;43173;50.980;18.204;2023-01-15T11:44:14;4.90;;;2.70;;
57337;SDS011;43173;50.980;18.204;2023-01-15T11:46:59;5.40;;;2.60;;
57337;SDS011;43173;50.980;18.204;2023-01-15T11:52:57;4.30;;;2.20;;
57337;SDS011;43173;50.980;18.204;2023-01-15T11:55:23;3.60;;;2.50;;
57337;SDS011;43173;50.980;18.204;2023-01-15T11:57:51;3.10;;;1.70;;
57337;SDS011;43173;50.980;18.204;2023-01-15T12:02:48;5.50;;;2.70;;
57337;SDS011;43173;50.980;18.204;2023-01-15T12:27:22;3.90;;;2.30;;
57337;SDS011;43173;50.980;18.204;2023-01-15T12:30:02;4.90;;;2.60;;
57337;SDS011;43173;50.980;18.204;2023-01-15T12:32:39;3.80;;;2.30;;
57337;SDS011;43173;50.980;18.204;2023-01-15T12:35:14;7.40;;;2.80;;
57337;SDS011;43173;50.980;18.204;2023-01-15T12:37:51;5.70;;;3.50;;
57337;SDS011;43173;50.980;18.204;2023-01-15T12:40:43;6.30;;;3.30;;
57337;SDS011;43173;50.980;18.204;2023-01-15T12:43:15;3.30;;;2.40;;
57337;SDS011;43173;50.980;18.204;2023-01-15T12:46:15;6.40;;;3.50;;
57337;SDS011;43173;50.980;18.204;2023-01-15T12:48:49;4.40;;;2.20;;
57337;SDS011;43173;50.980;18.204;2023-01-15T12:51:23;5.60;;;3.00;;
57337;SDS011;43173;50.980;18.204;2023-01-15T12:54:34;6.00;;;2.50;;
57337;SDS011;43173;50.980;18.204;2023-01-15T13:07:26;6.00;;;3.20;;
57337;SDS011;43173;50.980;18.204;2023-01-15T13:21:16;4.80;;;2.10;;
57337;SDS011;43173;50.980;18.204;2023-01-15T13:35:46;5.10;;;2.30;;
57337;SDS011;43173;50.980;18.204;2023-01-15T13:38:18;7.00;;;3.20;;
57337;SDS011;43173;50.980;18.204;2023-01-15T13:40:47;9.10;;;3.80;;
57337;SDS011;43173;50.980;18.204;2023-01-15T13:43:21;12.30;;;4.60;;
57337;SDS011;43173;50.980;18.204;2023-01-15T13:45:52;8.70;;;4.10;;
57337;SDS011;43173;50.980;18.204;2023-01-15T13:48:19;7.70;;;3.40;;
57337;SDS011;43173;50.980;18.204;2023-01-15T13:50:58;8.20;;;3.90;;
57337;SDS011;43173;50.980;18.204;2023-01-15T13:56:10;7.30;;;3.60;;
57337;SDS011;43173;50.980;18.204;2023-01-15T13:58:50;4.80;;;2.80;;
57337;SDS011;43173;50.980;18.204;2023-01-15T14:06:36;8.00;;;4.00;;
57337;SDS011;43173;50.980;18.204;2023-01-15T14:31:26;11.00;;;4.30;;
57337;SDS011;43173;50.980;18.204;2023-01-15T14:45:07;10.70;;;4.50;;
57337;SDS011;43173;50.980;18.204;2023-01-15T14:47:35;10.50;;;4.60;;
57337;SDS011;43173;50.980;18.204;2023-01-15T14:50:43;13.30;;;5.60;;
57337;SDS011;43173;50.980;18.204;2023-01-15T14:53:13;8.60;;;4.10;;
57337;SDS011;43173;50.980;18.204;2023-01-15T14:55:55;6.30;;;3.20;;
57337;SDS011;43173;50.980;18.204;2023-01-15T15:04:21;7.80;;;3.70;;
57337;SDS011;43173;50.980;18.204;2023-01-15T15:07:11;30.40;;;9.80;;
57337;SDS011;43173;50.980;18.204;2023-01-15T15:09:39;12.70;;;5.80;;
57337;SDS011;43173;50.980;18.204;2023-01-15T15:26:26;10.10;;;5.00;;
57337;SDS011;43173;50.980;18.204;2023-01-15T15:29:10;9.60;;;5.20;;
57337;SDS011;43173;50.980;18.204;2023-01-15T15:31:38;9.30;;;4.10;;
57337;SDS011;43173;50.980;18.204;2023-01-15T15:34:06;12.10;;;5.50;;
57337;SDS011;43173;50.980;18.204;2023-01-15T15:36:40;11.40;;;5.20;;
57337;SDS011;43173;50.980;18.204;2023-01-15T15:39:14;7.70;;;4.10;;
57337;SDS011;43173;50.980;18.204;2023-01-15T15:41:45;3.80;;;2.60;;
57337;SDS011;43173;50.980;18.204;2023-01-15T15:44:38;5.10;;;3.00;;
57337;SDS011;43173;50.980;18.204;2023-01-15T15:47:25;5.30;;;3.30;;
57337;SDS011;43173;50.980;18.204;2023-01-15T15:52:56;5.30;;;3.30;;
57337;SDS011;43173;50.980;18.204;2023-01-15T15:55:26;4.00;;;2.70;;
57337;SDS011;43173;50.980;18.204;2023-01-15T15:58:00;5.50;;;2.80;;
57337;SDS011;43173;50.980;18.204;2023-01-15T16:00:30;5.20;;;3.10;;
57337;SDS011;43173;50.980;18.204;2023-01-15T16:03:05;5.00;;;2.70;;
57337;SDS011;43173;50.980;18.204;2023-01-15T16:05:32;4.20;;;2.30;;
57337;SDS011;43173;50.980;18.204;2023-01-15T16:10:43;2.90;;;1.80;;
57337;SDS011;43173;50.980;18.204;2023-01-15T16:13:12;1.90;;;1.40;;
57337;SDS011;43173;50.980;18.204;2023-01-15T16:15:46;3.20;;;0.80;;
57337;SDS011;43173;50.980;18.204;2023-01-15T16:18:34;3.10;;;1.70;;
57337;SDS011;43173;50.980;18.204;2023-01-15T16:21:00;3.80;;;1.50;;
57337;SDS011;43173;50.980;18.204;2023-01-15T16:23:27;3.50;;;1.30;;
57337;SDS011;43173;50.980;18.204;2023-01-15T16:28:49;1.80;;;0.80;;
57337;SDS011;43173;50.980;18.204;2023-01-15T16:31:18;6.00;;;1.80;;
57337;SDS011;43173;50.980;18.204;2023-01-15T16:33:52;2.20;;;1.30;;
57337;SDS011;43173;50.980;18.204;2023-01-15T16:36:20;7.10;;;2.00;;
57337;SDS011;43173;50.980;18.204;2023-01-15T16:38:47;4.60;;;2.10;;
57337;SDS011;43173;50.980;18.204;2023-01-15T16:41:18;10.20;;;4.30;;
57337;SDS011;43173;50.980;18.204;2023-01-15T16:43:54;12.10;;;5.20;;
57337;SDS011;43173;50.980;18.204;2023-01-15T16:46:21;12.60;;;5.50;;
57337;SDS011;43173;50.980;18.204;2023-01-15T16:48:48;12.50;;;5.20;;
57337;SDS011;43173;50.980;18.204;2023-01-15T16:51:53;14.30;;;5.80;;
57337;SDS011;43173;50.980;18.204;2023-01-15T16:59:53;9.90;;;4.20;;
57337;SDS011;43173;50.980;18.204;2023-01-15T17:02:23;10.20;;;4.70;;
57337;SDS011;43173;50.980;18.204;2023-01-15T17:04:54;6.00;;;3.20;;
57337;SDS011;43173;50.980;18.204;2023-01-15T17:10:05;6.80;;;3.20;;
57337;SDS011;43173;50.980;18.204;2023-01-15T17:12:48;3.80;;;2.10;;
57337;SDS011;43173;50.980;18.204;2023-01-15T17:17:41;8.50;;;4.40;;
57337;SDS011;43173;50.980;18.204;2023-01-15T17:20:12;7.90;;;3.70;;
57337;SDS011;43173;50.980;18.204;2023-01-15T17:22:42;8.20;;;4.40;;
57337;SDS011;43173;50.980;18.204;2023-01-15T17:27:55;10.90;;;4.90;;
57337;SDS011;43173;50.980;18.204;2023-01-15T17:30:24;11.60;;;5.30;;
57337;SDS011;43173;50.980;18.204;2023-01-15T17:32:58;4.70;;;2.50;;
57337;SDS011;43173;50.980;18.204;2023-01-15T17:35:28;3.90;;;2.20;;
57337;SDS011;43173;50.980;18.204;2023-01-15T17:37:58;4.20;;;2.40;;
57337;SDS011;43173;50.980;18.204;2023-01-15T17:40:24;4.90;;;2.30;;
57337;SDS011;43173;50.980;18.204;2023-01-15T17:42:50;7.20;;;3.40;;
57337;SDS011;43173;50.980;18.204;2023-01-15T17:45:17;9.80;;;3.80;;
57337;SDS011;43173;50.980;18.204;2023-01-15T17:47:44;12.10;;;5.30;;
57337;SDS011;43173;50.980;18.204;2023-01-15T17:50:10;9.30;;;4.60;;
57337;SDS011;43173;50.980;18.204;2023-01-15T17:52:36;6.40;;;3.80;;
57337;SDS011;43173;50.980;18.204;2023-01-15T17:55:03;5.30;;;3.70;;
57337;SDS011;43173;50.980;18.204;2023-01-15T17:57:47;5.70;;;3.40;;
57337;SDS011;43173;50.980;18.204;2023-01-15T18:00:31;4.40;;;3.40;;
57337;SDS011;43173;50.980;18.204;2023-01-15T18:03:18;3.50;;;2.90;;
57337;SDS011;43173;50.980;18.204;2023-01-15T18:06:03;5.40;;;3.30;;
57337;SDS011;43173;50.980;18.204;2023-01-15T18:08:29;5.50;;;3.10;;
57337;SDS011;43173;50.980;18.204;2023-01-15T18:10:55;4.60;;;3.40;;
57337;SDS011;43173;50.980;18.204;2023-01-15T18:13:21;7.90;;;3.80;;
57337;SDS011;43173;50.980;18.204;2023-01-15T18:15:47;9.00;;;3.40;;
57337;SDS011;43173;50.980;18.204;2023-01-15T18:18:12;9.80;;;4.20;;
57337;SDS011;43173;50.980;18.204;2023-01-15T18:20:40;12.00;;;5.20;;
57337;SDS011;43173;50.980;18.204;2023-01-15T18:23:05;10.80;;;5.10;;
57337;SDS011;43173;50.980;18.204;2023-01-15T18:25:32;10.30;;;5.50;;
57337;SDS011;43173;50.980;18.204;2023-01-15T18:27:59;9.10;;;5.00;;
57337;SDS011;43173;50.980;18.204;2023-01-15T18:30:24;10.70;;;5.00;;
57337;SDS011;43173;50.980;18.204;2023-01-15T18:32:50;7.90;;;3.90;;
57337;SDS011;43173;50.980;18.204;2023-01-15T18:35:15;8.80;;;4.40;;
57337;SDS011;43173;50.980;18.204;2023-01-15T18:37:42;10.30;;;4.50;;
57337;SDS011;43173;50.980;18.204;2023-01-15T18:40:09;6.90;;;3.40;;
57337;SDS011;43173;50.980;18.204;2023-01-15T18:42:39;5.70;;;3.90;;